Terminal Aerodrome Forecast
Issued by NWS Amarillo, TX

Home | Current Version | Previous Version | Text Only | Print | Product List | Glossary On
Versions: 1 2 3 4 5 6 7 8 9 10 11 12
000
FTUS44 KAMA 302300
TAFAMA
TAF
KAMA 302320Z 0100/0124 18010KT P6SM FEW300
     FM010900 21015KT P6SM FEW250
     FM011400 22015G25KT P6SM SCT100=

USA.gov is the U.S. government's official web portal to all federal, state and local government web resources and services.